createdAt,value
2019-06-27T00:02:42.896Z,25.60
2019-06-27T00:05:48.117Z,25.60
2019-06-27T00:08:53.555Z,25.60
2019-06-27T00:11:58.583Z,25.50
2019-06-27T00:15:03.544Z,25.60
2019-06-27T00:18:08.485Z,25.50
2019-06-27T00:21:13.608Z,25.40
2019-06-27T00:24:18.543Z,25.40
2019-06-27T00:27:23.408Z,25.40
2019-06-27T00:30:28.334Z,25.30
2019-06-27T00:33:33.601Z,25.30
2019-06-27T00:36:38.500Z,25.30
2019-06-27T00:39:43.643Z,25.30
2019-06-27T00:42:48.577Z,25.30
2019-06-27T00:45:53.724Z,25.30
2019-06-27T00:48:59.520Z,25.30
2019-06-27T00:52:04.533Z,25.30
2019-06-27T00:55:10.076Z,25.30
2019-06-27T00:58:15.020Z,25.20
2019-06-27T01:01:19.849Z,25.30
2019-06-27T01:04:24.818Z,25.30
2019-06-27T01:07:29.817Z,25.30
2019-06-27T01:10:35.009Z,25.30
2019-06-27T01:13:40.108Z,25.20
2019-06-27T01:16:45.170Z,25.20
2019-06-27T01:19:50.165Z,25.20
2019-06-27T01:23:13.954Z,25.20
2019-06-27T01:26:18.879Z,25.20
2019-06-27T01:29:23.852Z,25.10
2019-06-27T01:32:28.755Z,25.10
2019-06-27T01:35:33.679Z,25.10
2019-06-27T01:38:38.640Z,25.00
2019-06-27T01:41:43.519Z,25.00
2019-06-27T01:45:15.991Z,24.90
2019-06-27T01:48:20.933Z,24.80
2019-06-27T01:51:26.034Z,24.80
2019-06-27T01:54:31.130Z,24.70
2019-06-27T01:57:46.241Z,24.70
2019-06-27T02:00:42.663Z,24.60
2019-06-27T02:03:47.369Z,24.60
2019-06-27T02:06:52.107Z,24.60
2019-06-27T02:09:57.090Z,24.60
2019-06-27T02:13:02.388Z,24.60
2019-06-27T02:16:07.366Z,24.50
2019-06-27T02:19:12.339Z,24.60
2019-06-27T02:22:17.486Z,24.50
2019-06-27T02:25:22.746Z,24.50
2019-06-27T02:28:27.723Z,24.60
2019-06-27T02:31:32.721Z,24.60
2019-06-27T02:34:37.540Z,24.60
2019-06-27T02:37:42.568Z,24.60
2019-06-27T02:40:47.675Z,24.50
2019-06-27T02:43:52.694Z,24.50
2019-06-27T02:46:57.681Z,24.50
2019-06-27T02:50:02.627Z,24.50
2019-06-27T02:53:07.708Z,24.50
2019-06-27T02:56:12.682Z,24.40
2019-06-27T02:59:17.773Z,24.40
2019-06-27T03:02:22.894Z,24.30
2019-06-27T03:05:27.827Z,24.20
2019-06-27T03:08:51.573Z,24.20
2019-06-27T03:12:00.037Z,24.10
2019-06-27T03:15:03.302Z,24.20
2019-06-27T03:18:09.737Z,24.10
2019-06-27T03:21:14.728Z,24.10
2019-06-27T03:24:19.751Z,24.10
2019-06-27T03:27:24.913Z,24.10
2019-06-27T03:30:29.754Z,24.00
2019-06-27T03:33:34.778Z,24.00
2019-06-27T03:36:39.933Z,24.00
2019-06-27T03:39:44.894Z,24.00
2019-06-27T03:42:50.201Z,24.00
2019-06-27T03:45:55.353Z,23.90
2019-06-27T03:49:00.474Z,23.90
2019-06-27T03:52:05.373Z,24.00
2019-06-27T03:55:12.616Z,24.00
2019-06-27T03:58:17.519Z,24.00
2019-06-27T04:01:22.470Z,24.00
2019-06-27T04:04:27.621Z,24.10
2019-06-27T04:07:32.743Z,24.10
2019-06-27T04:10:37.843Z,24.30
2019-06-27T04:13:43.018Z,24.30
2019-06-27T04:16:49.444Z,24.40
2019-06-27T04:19:54.751Z,24.50
2019-06-27T04:23:00.016Z,24.60
2019-06-27T04:26:05.074Z,24.70
2019-06-27T04:29:10.172Z,24.80
2019-06-27T04:32:15.420Z,24.80
2019-06-27T04:35:20.505Z,24.80
2019-06-27T04:38:25.707Z,24.90
2019-06-27T04:41:30.861Z,25.00
2019-06-27T04:44:35.711Z,25.00
2019-06-27T04:47:40.715Z,25.10
2019-06-27T04:50:45.878Z,25.20
2019-06-27T04:53:50.759Z,25.30
2019-06-27T04:56:55.648Z,25.50
2019-06-27T05:00:00.646Z,25.60
2019-06-27T05:03:05.608Z,25.70
2019-06-27T05:06:10.700Z,25.90
2019-06-27T05:09:15.920Z,26.00
2019-06-27T05:12:20.763Z,26.20
2019-06-27T05:15:25.828Z,26.30
2019-06-27T05:18:31.578Z,26.30
2019-06-27T05:21:36.882Z,26.50
2019-06-27T05:24:41.916Z,26.60
2019-06-27T05:27:47.064Z,26.70
2019-06-27T05:30:52.014Z,26.90
2019-06-27T05:33:57.059Z,27.00
2019-06-27T05:37:02.020Z,27.10
2019-06-27T05:40:07.101Z,27.10
2019-06-27T05:43:12.086Z,27.20
2019-06-27T05:46:17.782Z,27.30
2019-06-27T05:49:22.946Z,27.50
2019-06-27T05:52:28.117Z,27.60
2019-06-27T05:55:33.273Z,27.70
2019-06-27T05:58:38.459Z,27.80
2019-06-27T06:01:43.702Z,28.00
2019-06-27T06:04:48.736Z,28.20
2019-06-27T06:07:53.999Z,28.40
2019-06-27T06:10:59.007Z,28.50
2019-06-27T06:14:04.488Z,28.70
2019-06-27T06:17:09.623Z,29.00
2019-06-27T06:20:15.262Z,29.30
2019-06-27T06:23:20.348Z,29.60
2019-06-27T06:26:25.695Z,30.10
2019-06-27T06:29:30.709Z,30.40
2019-06-27T06:32:35.663Z,30.90
2019-06-27T06:35:40.787Z,31.30
2019-06-27T06:38:46.032Z,31.80
2019-06-27T06:41:50.981Z,32.20
2019-06-27T06:44:55.927Z,32.60
2019-06-27T06:48:01.050Z,33.20
2019-06-27T06:51:06.040Z,33.50
2019-06-27T06:54:11.027Z,34.00
2019-06-27T06:57:16.061Z,34.60
2019-06-27T07:00:21.457Z,35.20
2019-06-27T07:03:26.594Z,35.90
2019-06-27T07:06:31.722Z,36.60
2019-06-27T07:09:36.672Z,37.30
2019-06-27T07:12:41.492Z,37.90
2019-06-27T07:15:46.483Z,38.30
2019-06-27T07:18:51.527Z,38.30
2019-06-27T07:21:56.530Z,39.00
2019-06-27T07:25:01.979Z,40.00
2019-06-27T07:28:07.291Z,40.70
2019-06-27T07:31:17.807Z,40.70
2019-06-27T07:34:19.168Z,40.70
2019-06-27T07:37:24.303Z,41.30
2019-06-27T07:40:29.485Z,41.30
2019-06-27T07:43:34.426Z,41.50
2019-06-27T07:46:39.598Z,41.30
2019-06-27T07:49:44.697Z,40.90
2019-06-27T07:52:49.639Z,40.50
2019-06-27T07:55:54.756Z,40.10
2019-06-27T07:58:59.752Z,39.60
2019-06-27T08:02:04.640Z,39.20
2019-06-27T08:05:10.396Z,38.40
2019-06-27T08:08:15.285Z,38.10
2019-06-27T08:11:20.379Z,37.90
2019-06-27T08:14:25.744Z,37.70
2019-06-27T08:17:31.201Z,37.70
2019-06-27T08:20:36.286Z,37.40
2019-06-27T08:23:42.132Z,37.30
2019-06-27T08:26:47.214Z,36.90
2019-06-27T08:29:52.111Z,36.80
2019-06-27T08:32:57.204Z,36.70
2019-06-27T08:36:02.450Z,36.50
2019-06-27T08:39:07.986Z,36.40
2019-06-27T08:42:12.924Z,36.20
2019-06-27T08:45:17.957Z,36.10
2019-06-27T08:48:22.928Z,36.10
2019-06-27T08:51:27.844Z,36.20
2019-06-27T08:54:32.968Z,36.20
2019-06-27T08:57:37.911Z,36.30
2019-06-27T09:00:45.847Z,36.30
2019-06-27T09:03:49.809Z,36.30
2019-06-27T09:06:57.414Z,36.40
2019-06-27T09:10:02.628Z,36.40
2019-06-27T09:13:07.902Z,35.80
2019-06-27T09:16:12.947Z,36.00
2019-06-27T09:19:17.916Z,36.20
2019-06-27T09:22:23.045Z,36.30
2019-06-27T09:25:28.093Z,36.50
2019-06-27T09:28:33.132Z,36.60
2019-06-27T09:31:38.148Z,36.80
2019-06-27T09:34:43.012Z,36.70
2019-06-27T09:37:48.088Z,36.70
2019-06-27T09:40:53.298Z,36.80
2019-06-27T09:43:58.383Z,36.90
2019-06-27T09:47:03.369Z,37.00
2019-06-27T09:50:09.099Z,37.00
2019-06-27T09:53:14.468Z,37.20
2019-06-27T09:56:38.431Z,37.10
2019-06-27T09:59:46.397Z,37.10
2019-06-27T10:02:51.388Z,37.30
2019-06-27T10:05:56.548Z,37.40
2019-06-27T10:09:01.552Z,37.60
2019-06-27T10:12:06.736Z,37.60
2019-06-27T10:15:11.824Z,37.70
2019-06-27T10:18:16.910Z,37.70
2019-06-27T10:21:21.945Z,37.70
2019-06-27T10:24:27.224Z,37.80
2019-06-27T10:27:32.341Z,37.80
2019-06-27T10:30:37.170Z,37.90
2019-06-27T10:33:42.106Z,38.00
2019-06-27T10:36:47.077Z,38.00
2019-06-27T10:39:52.271Z,38.00
2019-06-27T10:42:57.437Z,38.00
2019-06-27T10:46:02.112Z,37.90
2019-06-27T10:49:06.908Z,37.90
2019-06-27T10:52:11.994Z,38.00
2019-06-27T10:55:17.173Z,38.10
2019-06-27T10:58:22.014Z,38.00
2019-06-27T11:01:27.065Z,38.10
2019-06-27T11:04:32.130Z,38.00
2019-06-27T11:07:40.596Z,38.00
2019-06-27T11:10:43.823Z,38.10
2019-06-27T11:13:58.246Z,38.30
2019-06-27T11:16:55.631Z,38.40
2019-06-27T11:20:00.791Z,38.60
2019-06-27T11:23:06.028Z,38.70
2019-06-27T11:26:11.022Z,38.60
2019-06-27T11:29:16.121Z,38.60
2019-06-27T11:32:21.082Z,38.80
2019-06-27T11:35:27.081Z,39.00
2019-06-27T11:38:32.256Z,39.10
2019-06-27T11:41:37.339Z,39.10
2019-06-27T11:44:42.332Z,39.00
2019-06-27T11:47:47.630Z,39.00
2019-06-27T11:50:52.877Z,39.20
2019-06-27T11:53:57.873Z,39.30
2019-06-27T11:57:02.862Z,39.50
2019-06-27T12:00:08.078Z,39.40
2019-06-27T12:03:13.153Z,39.40
2019-06-27T12:06:18.491Z,39.40
2019-06-27T12:09:24.044Z,39.20
2019-06-27T12:12:29.184Z,39.10
2019-06-27T12:15:37.187Z,39.10
2019-06-27T12:18:42.161Z,38.90
2019-06-27T12:21:47.201Z,38.90
2019-06-27T12:24:52.279Z,38.90
2019-06-27T12:27:57.429Z,38.90
2019-06-27T12:31:19.281Z,39.00
2019-06-27T12:34:09.790Z,39.10
2019-06-27T12:37:14.864Z,39.00
2019-06-27T12:40:20.939Z,38.90
2019-06-27T12:43:26.131Z,38.80
2019-06-27T12:46:37.394Z,38.60
2019-06-27T12:50:00.647Z,38.50
2019-06-27T12:52:49.146Z,38.60
2019-06-27T12:55:54.404Z,38.70
2019-06-27T12:58:59.617Z,38.80
2019-06-27T13:02:04.869Z,38.80
2019-06-27T13:05:10.644Z,38.80
2019-06-27T13:08:15.681Z,38.80
2019-06-27T13:11:20.777Z,38.70
2019-06-27T13:14:25.884Z,38.80
2019-06-27T13:17:31.135Z,38.70
2019-06-27T13:20:36.067Z,38.70
2019-06-27T13:23:41.207Z,38.70
2019-06-27T13:26:46.177Z,38.60
2019-06-27T13:29:51.464Z,38.60
2019-06-27T13:32:56.521Z,38.70
2019-06-27T13:36:01.758Z,38.70
2019-06-27T13:39:07.306Z,38.70
2019-06-27T13:42:12.501Z,38.70
2019-06-27T13:45:17.686Z,38.70
2019-06-27T13:48:22.679Z,38.70
2019-06-27T13:51:27.816Z,38.80
2019-06-27T13:54:32.696Z,38.90
2019-06-27T13:57:37.721Z,38.90
2019-06-27T14:00:45.026Z,39.10
2019-06-27T14:03:50.273Z,39.10
2019-06-27T14:06:55.333Z,39.00
2019-06-27T14:10:00.494Z,38.90
2019-06-27T14:13:05.484Z,38.10
2019-06-27T14:16:10.417Z,37.70
2019-06-27T14:19:15.479Z,37.00
2019-06-27T14:22:32.751Z,36.40
2019-06-27T14:25:27.248Z,35.60
2019-06-27T14:28:32.247Z,35.20
2019-06-27T14:31:37.325Z,34.80
2019-06-27T14:34:42.507Z,34.70
2019-06-27T14:37:47.375Z,34.50
2019-06-27T14:40:52.350Z,34.60
2019-06-27T14:43:57.319Z,34.60
2019-06-27T14:47:02.269Z,34.70
2019-06-27T14:50:07.659Z,34.80
2019-06-27T14:53:12.955Z,34.90
2019-06-27T14:56:17.993Z,35.00
2019-06-27T14:59:23.409Z,35.00
2019-06-27T15:02:29.274Z,35.20
2019-06-27T15:05:34.353Z,35.30
2019-06-27T15:08:39.393Z,35.30
2019-06-27T15:11:44.386Z,35.10
2019-06-27T15:14:50.617Z,35.10
2019-06-27T15:17:55.644Z,35.10
2019-06-27T15:21:00.567Z,35.00
2019-06-27T15:24:06.275Z,34.90
2019-06-27T15:27:11.853Z,34.90
2019-06-27T15:30:18.331Z,34.80
2019-06-27T15:33:23.280Z,34.80
2019-06-27T15:36:28.415Z,34.80
2019-06-27T15:39:33.572Z,34.60
2019-06-27T15:42:38.808Z,34.20
2019-06-27T15:45:45.594Z,33.80
2019-06-27T15:48:50.653Z,33.40
2019-06-27T15:51:59.482Z,33.10
2019-06-27T15:55:02.646Z,33.20
2019-06-27T15:58:07.834Z,33.00
2019-06-27T16:01:12.983Z,32.80
2019-06-27T16:04:30.211Z,32.60
2019-06-27T16:07:24.829Z,32.80
2019-06-27T16:10:30.213Z,32.90
2019-06-27T16:13:35.565Z,33.10
2019-06-27T16:16:40.730Z,33.10
2019-06-27T16:19:46.181Z,32.80
2019-06-27T16:22:51.247Z,32.50
2019-06-27T16:25:56.321Z,32.60
2019-06-27T16:29:01.267Z,32.60
2019-06-27T16:32:06.251Z,32.60
2019-06-27T16:35:12.886Z,32.70
2019-06-27T16:38:18.322Z,32.60
2019-06-27T16:41:23.332Z,32.70
2019-06-27T16:44:28.849Z,32.80
2019-06-27T16:47:34.052Z,32.70
2019-06-27T16:50:39.034Z,32.50
2019-06-27T16:53:47.337Z,32.40
2019-06-27T16:56:52.282Z,32.40
2019-06-27T16:59:57.234Z,32.30
2019-06-27T17:03:02.411Z,32.30
2019-06-27T17:06:07.634Z,32.10
2019-06-27T17:09:12.788Z,32.10
2019-06-27T17:12:17.807Z,31.90
2019-06-27T17:15:22.970Z,31.80
2019-06-27T17:18:27.971Z,31.80
2019-06-27T17:21:32.710Z,31.70
2019-06-27T17:24:37.793Z,31.70
2019-06-27T17:27:43.407Z,31.70
2019-06-27T17:30:51.461Z,31.70
2019-06-27T17:33:56.450Z,31.60
2019-06-27T17:37:01.405Z,31.50
2019-06-27T17:40:09.866Z,31.40
2019-06-27T17:43:13.798Z,31.30
2019-06-27T17:46:18.922Z,31.20
2019-06-27T17:49:24.268Z,31.20
2019-06-27T17:52:31.426Z,31.30
2019-06-27T17:55:36.404Z,31.20
2019-06-27T17:58:41.355Z,31.20
2019-06-27T18:01:46.662Z,31.10
2019-06-27T18:04:51.583Z,31.00
2019-06-27T18:07:56.724Z,30.90
2019-06-27T18:11:01.628Z,30.80
2019-06-27T18:14:06.766Z,30.90
2019-06-27T18:17:11.990Z,31.00
2019-06-27T18:20:17.254Z,31.00
2019-06-27T18:23:22.358Z,31.00
2019-06-27T18:26:28.032Z,31.00
2019-06-27T18:29:33.034Z,31.10
2019-06-27T18:32:38.132Z,31.00
2019-06-27T18:35:42.882Z,30.80
2019-06-27T18:38:47.916Z,30.80
2019-06-27T18:41:52.998Z,30.70
2019-06-27T18:44:57.960Z,30.70
2019-06-27T18:48:03.030Z,30.50
2019-06-27T18:51:08.194Z,30.40
2019-06-27T18:54:13.089Z,30.40
2019-06-27T18:57:18.043Z,30.40
2019-06-27T19:00:23.131Z,30.40
2019-06-27T19:03:28.076Z,30.30
2019-06-27T19:06:33.097Z,30.30
2019-06-27T19:09:38.121Z,30.20
2019-06-27T19:12:43.461Z,30.20
2019-06-27T19:15:48.586Z,30.10
2019-06-27T19:18:57.347Z,30.00
2019-06-27T19:22:39.083Z,29.90
2019-06-27T19:25:45.323Z,29.90
2019-06-27T19:28:50.394Z,29.90
2019-06-27T19:31:57.781Z,29.80
2019-06-27T19:35:02.856Z,29.70
2019-06-27T19:38:07.960Z,29.60
2019-06-27T19:41:13.013Z,29.60
2019-06-27T19:44:18.015Z,29.50
2019-06-27T19:47:23.038Z,29.50
2019-06-27T19:50:30.908Z,29.40
2019-06-27T19:53:35.925Z,29.40
2019-06-27T19:56:40.663Z,29.40
2019-06-27T19:59:46.043Z,29.30
2019-06-27T20:02:50.808Z,29.30
2019-06-27T20:05:55.630Z,29.20
2019-06-27T20:09:00.575Z,29.20
2019-06-27T20:12:05.745Z,29.20
2019-06-27T20:15:10.942Z,29.10
2019-06-27T20:18:15.723Z,29.10
2019-06-27T20:21:20.634Z,29.00
2019-06-27T20:24:25.552Z,29.00
2019-06-27T20:27:30.400Z,29.00
2019-06-27T20:30:35.230Z,28.90
2019-06-27T20:33:40.092Z,28.80
2019-06-27T20:36:45.241Z,28.80
2019-06-27T20:39:50.569Z,28.70
2019-06-27T20:42:55.703Z,28.70
2019-06-27T20:46:01.273Z,28.70
2019-06-27T20:49:06.190Z,28.70
2019-06-27T20:52:10.951Z,28.60
2019-06-27T20:55:15.771Z,28.50
2019-06-27T20:58:20.607Z,28.50
2019-06-27T21:01:25.495Z,28.40
2019-06-27T21:04:30.179Z,28.40
2019-06-27T21:07:35.457Z,28.40
2019-06-27T21:10:40.552Z,28.30
2019-06-27T21:13:45.698Z,28.40
2019-06-27T21:16:50.634Z,28.30
2019-06-27T21:19:55.605Z,28.40
2019-06-27T21:23:00.460Z,28.30
2019-06-27T21:26:06.069Z,28.20
2019-06-27T21:29:11.395Z,28.20
2019-06-27T21:32:30.587Z,28.10
2019-06-27T21:35:23.042Z,27.90
2019-06-27T21:38:28.039Z,27.80
2019-06-27T21:41:32.997Z,27.90
2019-06-27T21:44:38.518Z,27.80
2019-06-27T21:47:43.807Z,27.80
2019-06-27T21:50:48.873Z,27.70
2019-06-27T21:53:53.893Z,27.60
2019-06-27T21:56:58.955Z,27.70
2019-06-27T22:00:04.951Z,27.60
2019-06-27T22:03:10.198Z,27.50
2019-06-27T22:06:15.130Z,27.50
2019-06-27T22:09:24.986Z,27.40
2019-06-27T22:12:27.019Z,27.40
2019-06-27T22:15:32.546Z,27.30
2019-06-27T22:18:37.396Z,27.20
2019-06-27T22:21:42.754Z,27.10
2019-06-27T22:24:47.681Z,27.10
2019-06-27T22:27:53.959Z,27.10
2019-06-27T22:30:58.864Z,27.10
2019-06-27T22:34:03.870Z,27.10
2019-06-27T22:37:09.039Z,27.10
2019-06-27T22:40:32.016Z,27.10
2019-06-27T22:43:54.880Z,27.00
2019-06-27T22:47:18.056Z,27.00
2019-06-27T22:50:37.265Z,27.00
2019-06-27T22:53:51.754Z,27.00
2019-06-27T22:56:56.862Z,27.00
2019-06-27T23:00:01.922Z,27.00
2019-06-27T23:03:09.122Z,27.00
2019-06-27T23:06:14.432Z,26.90
2019-06-27T23:09:19.383Z,26.70
2019-06-27T23:12:24.652Z,26.60
2019-06-27T23:15:29.784Z,26.60
2019-06-27T23:18:38.552Z,26.40
2019-06-27T23:21:43.461Z,26.40
2019-06-27T23:24:48.576Z,26.50
2019-06-27T23:27:53.658Z,26.40
2019-06-27T23:30:58.657Z,26.50
2019-06-27T23:34:03.897Z,26.40
2019-06-27T23:37:08.874Z,26.40
2019-06-27T23:40:15.158Z,26.40
2019-06-27T23:43:20.370Z,26.40
2019-06-27T23:46:41.933Z,26.40
2019-06-27T23:49:47.020Z,26.50
2019-06-27T23:52:51.975Z,26.50
2019-06-27T23:55:57.073Z,26.60
2019-06-27T23:59:02.082Z,26.50
